Great Falls/Malmstrom AFB, Montana
Current Conditions -  °F | °C
As of 5:53 AM on Thursday 27 Nov 2014 (Local Time) from KGTF Reporting Station
Clear Clear  
Wind Chill: 31°   Ceiling: Unl
Heat Index: 39°   Visibility: 10mi
Dew Point: 31°   Wind: 13mph
Humidity: 73%   Direction: 210°SSW
Pressure: 29.82"   Gusts: NA
Location:  47.47°N, 111.32°W
Report Text: KGTF 271253Z 21011KT 10SM CLR 04/M01 A2982 RMK AO2 SLP132 T00391006
Loading
Personal Weather Stations






























Interactive Weather Map New forecast layout! Learn more

10-Day Weather Forecast

Advertisements
Track Severe Weather on mobile